Latest Weather Observations for Groote Eylandt Airport

IDD60801

Issued at 6:01 pm CST Thursday 11 February 2016 (issued every 30 minutes, with the page automatically refreshed every 10 minutes)

About weather observations | Map of weather stations | Latest weather observations for NT | Other Formats
Station Details ID: 014518 Name: GROOTE EYLANDT AIRPORT Lat: -13.97 Lon: 136.46 Height: 13.7 m
Data from the previous 72 hours. | See also: Recent months at Groote Eylandt Airport
Date/Time
CST
Temp
°C
App
Temp
°C
Dew
Point
Rel
Hum
%
Delta-T
°C
Wind Press
QNH
hPa
Press
MSL
hPa
Rain
since 9 am
mm
Dir
 
Spd
km/h
Gust
km/h
Spd
kts
Gust
kts
11/06:00pm 28.4 33.7 25.8 86 1.8 ESE 9 13 5 7 1005.2 1005.1 8.6
11/05:30pm 28.0 33.6 25.4 86 1.8 ESE 6 7 3 4 1005.0 1004.9 8.6
11/05:00pm 27.8 33.1 25.2 86 1.8 ESE 7 13 4 7 1004.8 1004.7 8.6
11/04:30pm 27.4 32.7 25.0 87 1.7 SE 6 9 3 5 1004.4 1004.3 8.6
11/04:00pm 26.0 30.2 23.5 86 1.7 SSE 7 11 4 6 1004.4 1004.3 8.6
11/03:30pm 25.4 29.4 22.7 85 1.8 SE 6 7 3 4 1004.7 1004.6 8.4
11/03:00pm 25.1 28.8 22.2 84 1.9 ENE 6 9 3 5 1005.1 1005.0 8.2
11/02:50pm 25.2 28.0 22.3 84 1.9 ENE 11 13 6 7 1005.1 1005.0 8.0
11/02:33pm 25.2 26.8 22.1 83 2.1 NE 17 22 9 12 1005.1 1005.0 7.0
11/02:32pm 25.2 26.8 22.1 83 2.1 NE 17 22 9 12 1005.1 1005.0 6.8
11/02:30pm 25.3 26.9 22.2 83 2.1 NE 17 22 9 12 1005.1 1005.0 6.6
11/02:14pm 25.8 26.5 22.3 81 2.4 E 22 28 12 15 1005.2 1005.1 5.4
11/02:00pm 25.7 25.4 21.8 79 2.6 ENE 26 37 14 20 1005.4 1005.3 2.8
11/01:45pm 26.1 25.3 20.9 73 3.4 ESE 26 50 14 27 1004.9 1004.8 2.8
11/01:30pm 30.7 33.6 24.4 69 4.4 SW 17 30 9 16 1004.7 1004.6 0.0
11/01:00pm 32.4 35.9 26.0 69 4.6 WSW 19 32 10 17 1004.6 1004.5 0.0
11/12:30pm 31.5 35.4 25.4 70 4.3 W 15 22 8 12 1005.2 1005.1 0.0
11/12:00pm 32.6 37.5 26.4 70 4.5 W 13 19 7 10 1005.6 1005.5 0.0
11/11:30am 32.3 37.2 26.4 71 4.2 WSW 13 17 7 9 1006.0 1005.9 0.0
11/11:00am 33.3 39.4 27.1 70 4.5 SW 9 15 5 8 1006.4 1006.3 0.0
11/10:30am 32.4 38.4 26.9 73 4.0 SW 9 17 5 9 1006.8 1006.7 0.0
11/10:00am 32.1 38.2 27.1 75 3.6 S 9 13 5 7 1007.0 1006.9 0.0
11/09:30am 31.2 37.3 27.1 79 3.0 SSE 9 13 5 7 1007.1 1007.0 0.0
11/09:00am 30.3 36.7 26.9 82 2.5 S 7 13 4 7 1007.0 1006.9 0.8
11/08:30am 29.4 35.4 26.4 84 2.1 SSE 7 13 4 7 1006.9 1006.8 0.8
11/08:00am 28.0 33.4 25.4 86 1.8 SW 7 11 4 6 1006.9 1006.8 0.8
11/07:30am 27.7 33.6 25.3 87 1.7 E 4 7 2 4 1006.7 1006.6 0.8
11/07:00am 26.2 31.0 24.1 88 1.4 SSE 6 7 3 4 1006.4 1006.3 0.6
11/06:30am 25.9 31.5 23.6 87 1.6 CALM 0 0 0 0 1006.4 1006.3 0.6
11/06:00am 25.6 31.0 23.3 87 1.6 CALM 0 7 0 4 1006.1 1006.0 0.6
11/05:30am 25.7 29.8 23.2 86 1.7 SE 7 11 4 6 1005.8 1005.7 0.6
11/05:00am 26.4 30.7 23.7 85 1.9 S 7 13 4 7 1005.8 1005.7 0.0
11/04:30am 26.6 31.1 23.9 85 1.9 S 7 13 4 7 1005.8 1005.7 0.0
11/04:00am 26.7 29.7 24.0 85 1.9 S 15 24 8 13 1005.9 1005.8 0.0
11/03:30am 27.2 30.9 24.5 85 1.9 S 13 30 7 16 1005.8 1005.7 0.0
11/03:00am 27.3 33.5 24.6 85 1.9 CALM 0 0 0 0 1005.3 1005.2 0.0
11/02:30am 27.6 33.2 24.8 85 2.0 SSE 4 6 2 3 1005.1 1005.0 0.0
11/02:00am 27.8 33.1 25.0 85 2.0 SSE 6 7 3 4 1005.6 1005.5 0.0
11/01:30am 27.5 32.6 24.6 84 2.0 SSE 6 7 3 4 1005.6 1005.5 0.0
11/01:00am 27.6 33.7 24.4 83 2.2 CALM 0 0 0 0 1005.5 1005.4 0.0
11/12:30am 27.6 33.3 24.4 83 2.2 ESE 2 7 1 4 1005.7 1005.6 0.0
11/12:00am 27.7 33.7 24.3 82 2.4 CALM 0 0 0 0 1006.1 1006.0 0.0
 
Date/Time
CST
Temp
°C
App
Temp
°C
Dew
Point
Rel
Hum
%
Delta-T
°C
Wind Press
QNH
hPa
Press
MSL
hPa
Rain
since 9 am
mm
Dir
 
Spd
km/h
Gust
km/h
Spd
kts
Gust
kts
10/11:30pm 27.8 33.4 24.2 81 2.5 ESE 2 7 1 4 1006.8 1006.7 0.0
10/11:00pm 28.3 34.4 24.5 80 2.6 CALM 0 0 0 0 1007.0 1006.9 0.0
10/10:30pm 28.4 33.3 24.4 79 2.8 ESE 6 7 3 4 1007.0 1006.9 0.0
10/10:00pm 29.1 34.2 24.9 78 2.9 E 7 11 4 6 1006.8 1006.7 0.0
10/09:30pm 29.5 35.0 25.3 78 3.0 E 6 9 3 5 1006.3 1006.2 0.0
10/09:00pm 29.4 34.5 24.9 77 3.2 ENE 7 11 4 6 1005.9 1005.8 0.0
10/08:30pm 29.7 34.8 25.0 76 3.3 NE 7 11 4 6 1005.7 1005.6 0.0
10/08:00pm 30.0 35.1 24.9 74 3.6 NNE 7 11 4 6 1005.4 1005.3 0.0
10/07:30pm 30.6 35.7 25.0 72 3.9 NE 7 11 4 6 1005.0 1004.9 0.0
10/07:00pm 31.1 36.2 25.0 70 4.3 NE 7 9 4 5 1004.9 1004.8 0.0
10/06:30pm 31.7 36.3 25.3 69 4.5 NE 11 15 6 8 1004.9 1004.8 0.0
10/06:00pm 31.8 36.0 25.4 69 4.5 E 13 17 7 9 1004.3 1004.2 0.0
10/05:30pm 32.7 37.1 26.3 69 4.6 E 15 26 8 14 1003.9 1003.8 0.0
10/05:00pm 32.2 35.7 25.5 67 4.8 E 17 24 9 13 1003.3 1003.2 0.0
10/04:30pm 29.8 33.6 23.5 69 4.4 NE 9 13 5 7 1003.2 1003.1 0.0
10/04:00pm 30.1 30.7 22.8 65 5.0 E 24 32 13 17 1002.8 1002.7 0.0
10/03:30pm 33.8 37.3 24.9 59 6.3 WNW 15 24 8 13 1002.7 1002.6 0.0
10/03:00pm 33.1 37.7 24.8 61 5.9 NE 9 13 5 7 1003.1 1003.0 0.0
10/02:30pm 33.2 37.5 24.9 61 5.9 NE 11 20 6 11 1003.9 1003.8 0.0
10/02:00pm 33.5 37.8 24.9 60 6.1 SSW 11 20 6 11 1004.1 1004.0 0.0
10/01:30pm 34.3 39.1 25.7 61 6.2 SW 11 17 6 9 1004.5 1004.4 0.0
10/01:00pm 34.2 39.1 26.4 64 5.6 WSW 13 20 7 11 1004.7 1004.6 0.0
10/12:30pm 33.3 38.1 26.3 66 5.0 SW 13 22 7 12 1005.1 1005.0 0.0
10/12:00pm 33.5 39.0 27.3 70 4.5 WSW 13 22 7 12 1005.6 1005.5 0.0
10/11:30am 33.2 38.9 27.0 70 4.5 SW 11 20 6 11 1006.0 1005.9 0.0
10/11:00am 33.1 38.7 27.4 72 4.1 WSW 13 22 7 12 1006.4 1006.3 0.0
10/10:30am 32.4 38.2 27.2 74 3.8 SW 11 17 6 9 1006.7 1006.6 0.0
10/10:00am 32.2 37.8 27.4 76 3.5 WSW 13 20 7 11 1007.0 1006.9 0.0
10/09:30am 32.1 38.9 28.0 79 3.0 SW 9 17 5 9 1007.0 1006.9 0.0
10/09:00am 31.4 37.1 27.5 80 2.8 WSW 13 22 7 12 1007.1 1007.0 0.0
10/08:30am 30.9 36.9 27.5 82 2.5 W 11 17 6 9 1007.1 1007.0 0.0
10/08:00am 30.5 38.4 27.7 85 2.0 SSE 2 6 1 3 1006.8 1006.7 0.0
10/07:30am 28.7 36.1 26.5 88 1.6 CALM 0 0 0 0 1006.4 1006.3 0.0
10/07:00am 26.8 33.0 24.6 88 1.5 CALM 0 0 0 0 1005.8 1005.7 0.0
10/06:30am 26.2 32.1 24.1 88 1.4 CALM 0 0 0 0 1005.5 1005.4 0.0
10/06:00am 26.1 31.9 24.0 88 1.4 CALM 0 0 0 0 1005.2 1005.1 0.0
10/05:30am 26.0 31.4 23.9 88 1.4 E 2 6 1 3 1004.8 1004.7 0.0
10/05:00am 26.3 31.4 24.0 87 1.6 ENE 4 7 2 4 1004.6 1004.5 0.0
10/04:30am 26.5 32.5 24.2 87 1.6 CALM 0 0 0 0 1004.4 1004.3 0.0
10/04:00am 26.5 32.0 24.0 86 1.7 NE 2 6 1 3 1004.4 1004.3 0.0
10/03:30am 26.8 32.4 24.3 86 1.7 NE 2 7 1 4 1004.7 1004.6 0.0
10/03:00am 26.9 31.8 24.4 86 1.7 E 6 7 3 4 1004.9 1004.8 0.0
10/02:30am 26.9 32.9 24.2 85 1.9 CALM 0 0 0 0 1005.1 1005.0 0.0
10/02:00am 27.2 33.2 24.3 84 2.0 CALM 0 0 0 0 1005.5 1005.4 0.0
10/01:30am 27.1 33.1 24.2 84 2.0 CALM 0 0 0 0 1005.9 1005.8 0.0
10/01:00am 27.2 33.1 24.1 83 2.1 CALM 0 0 0 0 1006.2 1006.1 0.0
10/12:30am 27.6 32.8 24.2 82 2.4 E 4 7 2 4 1006.5 1006.4 0.0
10/12:00am 27.8 32.6 24.2 81 2.5 E 6 9 3 5 1006.8 1006.7 0.0
 
Date/Time
CST
Temp
°C
App
Temp
°C
Dew
Point
Rel
Hum
%
Delta-T
°C
Wind Press
QNH
hPa
Press
MSL
hPa
Rain
since 9 am
mm
Dir
 
Spd
km/h
Gust
km/h
Spd
kts
Gust
kts
09/11:30pm 28.3 33.3 24.5 80 2.6 ENE 6 7 3 4 1007.2 1007.1 0.0
09/11:00pm 28.9 34.2 24.9 79 2.8 NNE 6 7 3 4 1007.5 1007.4 0.0
09/10:30pm 29.1 34.2 24.9 78 2.9 NE 7 9 4 5 1007.5 1007.4 0.0
09/10:00pm 29.1 33.7 24.7 77 3.1 ENE 9 13 5 7 1007.3 1007.2 0.0
09/09:30pm 29.2 32.5 24.5 76 3.3 ENE 15 19 8 10 1006.7 1006.6 0.0
09/09:00pm 29.4 33.7 24.3 74 3.6 ENE 9 11 5 6 1006.9 1006.8 0.0
09/08:30pm 29.8 34.2 24.4 73 3.8 E 9 13 5 7 1006.7 1006.6 0.0
09/08:00pm 30.1 34.5 24.5 72 3.9 E 9 15 5 8 1006.2 1006.1 0.0
09/07:30pm 30.5 34.8 24.2 69 4.4 ENE 9 13 5 7 1005.6 1005.5 0.0
09/07:00pm 31.1 35.2 24.0 66 4.9 E 9 13 5 7 1005.3 1005.2 0.0
09/06:30pm 31.8 36.0 24.1 63 5.4 E 9 15 5 8 1005.1 1005.0 0.0
09/06:00pm 32.1 35.4 23.9 62 5.7 E 13 19 7 10 1004.9 1004.8 0.0
09/05:30pm 32.8 35.8 24.0 60 6.2 E 15 19 8 10 1004.3 1004.2 0.0
09/05:00pm 33.9 38.2 24.2 57 6.8 SE 9 15 5 8 1004.5 1004.4 0.0
09/04:30pm 33.5 36.0 23.2 54 7.1 ENE 15 22 8 12 1004.7 1004.6 0.0
09/04:00pm 34.2 37.4 22.3 50 8.2 SW 9 17 5 9 1004.4 1004.3 0.0
09/03:30pm 34.9 37.3 20.8 43 9.5 SSW 9 17 5 9 1004.5 1004.4 0.0
09/03:00pm 35.2 37.0 20.3 41 10.0 WSW 11 20 6 11 1004.8 1004.7 0.0
09/02:30pm 35.0 36.9 20.5 42 9.8 WSW 11 17 6 9 1005.2 1005.1 0.0
09/02:00pm 34.6 36.3 21.6 46 8.8 W 15 20 8 11 1005.6 1005.5 0.0
09/01:30pm 34.5 37.0 23.2 51 7.9 W 15 22 8 12 1006.0 1005.9 0.0
09/01:00pm 33.7 37.1 24.0 57 6.8 WSW 13 17 7 9 1006.4 1006.3 0.0
09/12:30pm 33.8 38.1 25.5 62 5.9 W 13 17 7 9 1006.8 1006.7 0.0
09/12:00pm 33.7 39.4 26.5 66 5.2 WSW 9 15 5 8 1007.3 1007.2 0.0
09/11:30am 32.9 38.9 26.4 68 4.7 SW 7 15 4 8 1007.7 1007.6 0.0
09/11:00am 32.4 37.9 26.7 72 4.1 WNW 11 15 6 8 1008.0 1007.9 0.0
09/10:30am 32.0 37.5 26.8 74 3.8 W 11 17 6 9 1008.4 1008.3 0.0
09/10:00am 31.5 36.8 27.0 77 3.2 WNW 13 20 7 11 1008.6 1008.5 0.0
09/09:30am 31.2 36.7 27.3 80 2.8 WNW 13 20 7 11 1008.6 1008.5 0.0
09/09:00am 30.8 36.4 27.4 82 2.5 NW 13 17 7 9 1008.3 1008.2 0.0
09/08:30am 30.2 36.5 27.4 85 2.0 NW 9 15 5 8 1008.0 1007.9 0.0
09/08:00am 29.1 36.8 26.9 88 1.6 CALM 0 0 0 0 1007.9 1007.8 0.0
09/07:30am 26.9 33.3 24.9 89 1.4 CALM 0 0 0 0 1007.6 1007.5 0.0
09/07:00am 25.5 31.1 23.6 89 1.3 CALM 0 0 0 0 1007.2 1007.1 0.0
09/06:30am 25.0 30.3 23.1 89 1.3 CALM 0 0 0 0 1006.7 1006.6 0.0
09/06:00am 24.8 29.5 22.7 88 1.4 E 2 6 1 3 1006.5 1006.4 0.0
09/05:30am 25.1 29.6 23.0 88 1.4 E 4 6 2 3 1006.2 1006.1 0.0
09/05:00am 25.3 30.3 23.2 88 1.4 ESE 2 7 1 4 1005.9 1005.8 0.0
09/04:30am 25.3 30.7 23.2 88 1.4 CALM 0 6 0 3 1005.6 1005.5 0.0
09/04:00am 25.4 29.6 23.1 87 1.6 E 6 7 3 4 1005.8 1005.7 0.0
09/03:30am 25.8 31.4 23.5 87 1.6 CALM 0 0 0 0 1005.9 1005.8 0.0
09/03:00am 26.1 30.6 23.6 86 1.7 E 6 9 3 5 1005.9 1005.8 0.0
09/02:30am 25.8 30.1 23.3 86 1.7 E 6 9 3 5 1006.2 1006.1 0.0
09/02:00am 26.1 31.6 23.4 85 1.8 CALM 0 6 0 3 1006.5 1006.4 0.0
09/01:30am 26.4 32.0 23.5 84 2.0 CALM 0 0 0 0 1006.8 1006.7 0.0
09/01:00am 26.6 31.1 23.7 84 2.0 E 6 7 3 4 1007.0 1006.9 0.0
09/12:30am 27.0 31.7 23.9 83 2.1 E 6 7 3 4 1007.4 1007.3 0.0
09/12:00am 26.9 31.6 23.4 81 2.4 ENE 4 7 2 4 1007.7 1007.6 0.0
 
Date/Time
CST
Temp
°C
App
Temp
°C
Dew
Point
Rel
Hum
%
Delta-T
°C
Wind Press
QNH
hPa
Press
MSL
hPa
Rain
since 9 am
mm
Dir
 
Spd
km/h
Gust
km/h
Spd
kts
Gust
kts
08/11:30pm 27.2 32.7 23.4 80 2.6 CALM 0 0 0 0 1008.2 1008.1 0.0
08/11:00pm 27.6 33.2 23.6 79 2.7 CALM 0 0 0 0 1008.4 1008.3 0.0
08/10:30pm 28.3 33.4 24.1 78 2.9 ENE 4 7 2 4 1008.3 1008.2 0.0
08/10:00pm 28.4 32.4 23.8 76 3.2 ENE 9 13 5 7 1008.1 1008.0 0.0
08/09:30pm 28.2 31.8 23.1 74 3.5 E 9 13 5 7 1007.9 1007.8 0.0
08/09:00pm 29.0 32.8 23.4 72 3.9 NE 9 11 5 6 1007.7 1007.6 0.0
08/08:30pm 29.2 32.7 22.9 69 4.3 NE 9 11 5 6 1007.4 1007.3 0.0
08/08:00pm 29.8 33.6 22.8 66 4.8 ENE 7 9 4 5 1007.1 1007.0 0.0
08/07:30pm 30.3 34.3 22.7 64 5.2 ESE 6 7 3 4 1006.5 1006.4 0.0
08/07:00pm 30.8 34.8 22.7 62 5.5 SE 6 7 3 4 1006.1 1006.0 0.0
08/06:30pm 31.7 35.6 23.0 60 6.0 ESE 7 11 4 6 1005.8 1005.7 0.0

Other Formats:

Comma delimited format used in spreadsheet applications
http://www.bom.gov.au/fwo/IDD60801/IDD60801.94153.axf

JavaScript Object Notation format (JSON) in row-major order
http://www.bom.gov.au/fwo/IDD60801/IDD60801.94153.json